Alto, Michigan
Current Conditions -  °F | °C
As of 2:53 PM on Wednesday 28 Jan 2015 (Local Time) from KGRR Reporting Station
Overcast Overcast  
Wind Chill: 21°   Ceiling: 11000
Heat Index: 30°   Visibility: 10mi
Dew Point:   Wind: 10mph
Humidity: 41%   Direction: 150°SSE
Pressure: 30.2"   Gusts: NA
Location:  42.86°N, 85.38°W
Report Text: KGRR 281953Z 15009KT 10SM BKN110 OVC210 M01/M13 A3020 RMK AO2 SLP238 T10111128 VISNO RWY 8R $
Loading
Personal Weather Stations






























Interactive Weather Map New forecast layout! Learn more

10-Day Weather Forecast

Advertisements
Track Severe Weather on mobile